sensor_id;sensor_type;location;lat;lon;timestamp;P1;durP1;ratioP1;P2;durP2;ratioP2
11034;SDS011;5571;48.110;-1.706;2022-08-01T00:00:21;5.65;;;3.22;;
11034;SDS011;5571;48.110;-1.706;2022-08-01T00:02:46;8.32;;;4.00;;
11034;SDS011;5571;48.110;-1.706;2022-08-01T00:05:11;11.77;;;3.35;;
11034;SDS011;5571;48.110;-1.706;2022-08-01T00:07:37;7.50;;;3.38;;
11034;SDS011;5571;48.110;-1.706;2022-08-01T00:10:03;8.48;;;3.83;;
11034;SDS011;5571;48.110;-1.706;2022-08-01T00:12:30;7.93;;;4.18;;
11034;SDS011;5571;48.110;-1.706;2022-08-01T00:14:56;7.68;;;4.53;;
11034;SDS011;5571;48.110;-1.706;2022-08-01T00:17:21;6.78;;;4.28;;
11034;SDS011;5571;48.110;-1.706;2022-08-01T00:19:46;8.52;;;4.75;;
11034;SDS011;5571;48.110;-1.706;2022-08-01T00:22:12;9.13;;;3.88;;
11034;SDS011;5571;48.110;-1.706;2022-08-01T00:24:37;9.13;;;4.35;;
11034;SDS011;5571;48.110;-1.706;2022-08-01T00:27:03;7.78;;;4.47;;
11034;SDS011;5571;48.110;-1.706;2022-08-01T00:29:28;10.50;;;4.70;;
11034;SDS011;5571;48.110;-1.706;2022-08-01T00:31:54;6.68;;;3.70;;
11034;SDS011;5571;48.110;-1.706;2022-08-01T00:34:19;6.80;;;3.75;;
11034;SDS011;5571;48.110;-1.706;2022-08-01T00:36:45;7.60;;;3.40;;
11034;SDS011;5571;48.110;-1.706;2022-08-01T00:39:11;6.75;;;3.63;;
11034;SDS011;5571;48.110;-1.706;2022-08-01T00:41:37;7.72;;;3.20;;
11034;SDS011;5571;48.110;-1.706;2022-08-01T00:44:05;8.13;;;3.72;;
11034;SDS011;5571;48.110;-1.706;2022-08-01T00:46:32;5.18;;;3.40;;
11034;SDS011;5571;48.110;-1.706;2022-08-01T00:48:58;7.85;;;3.85;;
11034;SDS011;5571;48.110;-1.706;2022-08-01T00:51:24;5.65;;;3.63;;
11034;SDS011;5571;48.110;-1.706;2022-08-01T00:53:51;6.20;;;3.33;;
11034;SDS011;5571;48.110;-1.706;2022-08-01T00:56:19;5.90;;;3.42;;
11034;SDS011;5571;48.110;-1.706;2022-08-01T00:58:46;11.18;;;3.40;;
11034;SDS011;5571;48.110;-1.706;2022-08-01T01:01:12;5.80;;;3.47;;
11034;SDS011;5571;48.110;-1.706;2022-08-01T01:03:37;5.20;;;3.00;;
11034;SDS011;5571;48.110;-1.706;2022-08-01T01:08:55;9.95;;;3.35;;
11034;SDS011;5571;48.110;-1.706;2022-08-01T01:11:37;8.98;;;3.10;;
11034;SDS011;5571;48.110;-1.706;2022-08-01T01:14:13;6.90;;;3.17;;
11034;SDS011;5571;48.110;-1.706;2022-08-01T01:16:48;4.85;;;2.83;;
11034;SDS011;5571;48.110;-1.706;2022-08-01T01:19:15;6.55;;;2.67;;
11034;SDS011;5571;48.110;-1.706;2022-08-01T01:24:31;3.13;;;2.50;;
11034;SDS011;5571;48.110;-1.706;2022-08-01T01:27:06;8.10;;;4.68;;
11034;SDS011;5571;48.110;-1.706;2022-08-01T01:29:48;7.07;;;4.38;;
11034;SDS011;5571;48.110;-1.706;2022-08-01T01:32:23;4.78;;;3.28;;
11034;SDS011;5571;48.110;-1.706;2022-08-01T01:34:52;5.18;;;2.58;;
11034;SDS011;5571;48.110;-1.706;2022-08-01T01:37:20;7.10;;;2.95;;
11034;SDS011;5571;48.110;-1.706;2022-08-01T01:39:49;4.75;;;2.70;;
11034;SDS011;5571;48.110;-1.706;2022-08-01T01:42:16;5.53;;;3.00;;
11034;SDS011;5571;48.110;-1.706;2022-08-01T01:44:43;5.60;;;3.20;;
11034;SDS011;5571;48.110;-1.706;2022-08-01T01:47:11;8.80;;;3.63;;
11034;SDS011;5571;48.110;-1.706;2022-08-01T01:49:38;7.05;;;2.92;;
11034;SDS011;5571;48.110;-1.706;2022-08-01T01:52:06;5.60;;;3.17;;
11034;SDS011;5571;48.110;-1.706;2022-08-01T01:54:33;6.70;;;3.30;;
11034;SDS011;5571;48.110;-1.706;2022-08-01T01:57:03;6.15;;;3.60;;
11034;SDS011;5571;48.110;-1.706;2022-08-01T01:59:32;8.07;;;3.22;;
11034;SDS011;5571;48.110;-1.706;2022-08-01T02:01:59;5.20;;;3.28;;
11034;SDS011;5571;48.110;-1.706;2022-08-01T02:04:28;5.40;;;2.95;;
11034;SDS011;5571;48.110;-1.706;2022-08-01T02:06:55;6.38;;;3.03;;
11034;SDS011;5571;48.110;-1.706;2022-08-01T02:09:22;4.78;;;2.97;;
11034;SDS011;5571;48.110;-1.706;2022-08-01T02:11:50;5.53;;;2.85;;
11034;SDS011;5571;48.110;-1.706;2022-08-01T02:14:16;5.88;;;2.85;;
11034;SDS011;5571;48.110;-1.706;2022-08-01T02:16:45;6.07;;;2.67;;
11034;SDS011;5571;48.110;-1.706;2022-08-01T02:19:14;4.22;;;2.42;;
11034;SDS011;5571;48.110;-1.706;2022-08-01T02:22:05;5.18;;;2.58;;
11034;SDS011;5571;48.110;-1.706;2022-08-01T02:27:14;4.30;;;2.55;;
11034;SDS011;5571;48.110;-1.706;2022-08-01T02:29:53;5.00;;;2.53;;
11034;SDS011;5571;48.110;-1.706;2022-08-01T02:32:24;5.63;;;2.75;;
11034;SDS011;5571;48.110;-1.706;2022-08-01T02:34:54;5.93;;;2.83;;
11034;SDS011;5571;48.110;-1.706;2022-08-01T02:37:22;5.63;;;2.40;;
11034;SDS011;5571;48.110;-1.706;2022-08-01T02:39:52;2.72;;;2.20;;
11034;SDS011;5571;48.110;-1.706;2022-08-01T02:42:19;3.63;;;2.22;;
11034;SDS011;5571;48.110;-1.706;2022-08-01T02:44:46;8.45;;;2.47;;
11034;SDS011;5571;48.110;-1.706;2022-08-01T02:47:14;2.83;;;2.13;;
11034;SDS011;5571;48.110;-1.706;2022-08-01T02:49:42;2.08;;;1.98;;
11034;SDS011;5571;48.110;-1.706;2022-08-01T02:52:12;2.38;;;1.90;;
11034;SDS011;5571;48.110;-1.706;2022-08-01T02:54:39;5.07;;;1.85;;
11034;SDS011;5571;48.110;-1.706;2022-08-01T02:57:07;2.28;;;1.75;;
11034;SDS011;5571;48.110;-1.706;2022-08-01T02:59:34;2.35;;;1.55;;
11034;SDS011;5571;48.110;-1.706;2022-08-01T03:02:03;2.03;;;1.80;;
11034;SDS011;5571;48.110;-1.706;2022-08-01T03:04:31;2.75;;;1.60;;
11034;SDS011;5571;48.110;-1.706;2022-08-01T03:06:58;3.05;;;2.00;;
11034;SDS011;5571;48.110;-1.706;2022-08-01T03:09:26;2.08;;;1.85;;
11034;SDS011;5571;48.110;-1.706;2022-08-01T03:11:54;2.25;;;1.67;;
11034;SDS011;5571;48.110;-1.706;2022-08-01T03:14:23;2.22;;;1.45;;
11034;SDS011;5571;48.110;-1.706;2022-08-01T03:16:50;4.63;;;1.65;;
11034;SDS011;5571;48.110;-1.706;2022-08-01T03:19:18;1.88;;;1.77;;
11034;SDS011;5571;48.110;-1.706;2022-08-01T03:21:45;1.30;;;1.25;;
11034;SDS011;5571;48.110;-1.706;2022-08-01T03:24:13;2.67;;;1.50;;
11034;SDS011;5571;48.110;-1.706;2022-08-01T03:26:40;2.65;;;1.95;;
11034;SDS011;5571;48.110;-1.706;2022-08-01T03:29:09;1.50;;;1.40;;
11034;SDS011;5571;48.110;-1.706;2022-08-01T03:31:45;1.60;;;1.50;;
11034;SDS011;5571;48.110;-1.706;2022-08-01T03:34:13;2.63;;;1.80;;
11034;SDS011;5571;48.110;-1.706;2022-08-01T03:36:48;1.90;;;1.20;;
11034;SDS011;5571;48.110;-1.706;2022-08-01T03:39:21;2.08;;;1.65;;
11034;SDS011;5571;48.110;-1.706;2022-08-01T03:41:52;2.05;;;1.48;;
11034;SDS011;5571;48.110;-1.706;2022-08-01T03:44:24;4.43;;;1.58;;
11034;SDS011;5571;48.110;-1.706;2022-08-01T03:46:59;1.23;;;1.20;;
11034;SDS011;5571;48.110;-1.706;2022-08-01T03:49:30;1.63;;;1.33;;
11034;SDS011;5571;48.110;-1.706;2022-08-01T03:51:58;2.10;;;1.30;;
11034;SDS011;5571;48.110;-1.706;2022-08-01T03:54:35;1.25;;;1.10;;
11034;SDS011;5571;48.110;-1.706;2022-08-01T03:57:03;0.93;;;0.93;;
11034;SDS011;5571;48.110;-1.706;2022-08-01T03:59:30;0.90;;;0.90;;
11034;SDS011;5571;48.110;-1.706;2022-08-01T04:01:56;1.52;;;1.10;;
11034;SDS011;5571;48.110;-1.706;2022-08-01T04:04:23;1.27;;;0.80;;
11034;SDS011;5571;48.110;-1.706;2022-08-01T04:06:49;1.17;;;1.05;;
11034;SDS011;5571;48.110;-1.706;2022-08-01T04:09:18;1.02;;;0.88;;
11034;SDS011;5571;48.110;-1.706;2022-08-01T04:11:44;0.70;;;0.70;;
11034;SDS011;5571;48.110;-1.706;2022-08-01T04:14:10;1.65;;;0.85;;
11034;SDS011;5571;48.110;-1.706;2022-08-01T04:16:35;0.70;;;0.70;;
11034;SDS011;5571;48.110;-1.706;2022-08-01T04:19:01;0.80;;;0.80;;
11034;SDS011;5571;48.110;-1.706;2022-08-01T04:21:28;1.00;;;0.80;;
11034;SDS011;5571;48.110;-1.706;2022-08-01T04:23:58;1.88;;;0.63;;
11034;SDS011;5571;48.110;-1.706;2022-08-01T04:26:28;0.82;;;0.75;;
11034;SDS011;5571;48.110;-1.706;2022-08-01T04:28:55;0.77;;;0.65;;
11034;SDS011;5571;48.110;-1.706;2022-08-01T04:31:22;0.50;;;0.45;;
11034;SDS011;5571;48.110;-1.706;2022-08-01T04:33:50;0.75;;;0.75;;
11034;SDS011;5571;48.110;-1.706;2022-08-01T04:36:19;0.77;;;0.60;;
11034;SDS011;5571;48.110;-1.706;2022-08-01T04:38:49;1.88;;;0.57;;
11034;SDS011;5571;48.110;-1.706;2022-08-01T04:41:17;0.70;;;0.70;;
11034;SDS011;5571;48.110;-1.706;2022-08-01T04:43:45;0.90;;;0.70;;
11034;SDS011;5571;48.110;-1.706;2022-08-01T04:46:11;1.48;;;0.70;;
11034;SDS011;5571;48.110;-1.706;2022-08-01T04:48:38;0.82;;;0.57;;
11034;SDS011;5571;48.110;-1.706;2022-08-01T04:51:10;0.73;;;0.73;;
11034;SDS011;5571;48.110;-1.706;2022-08-01T04:53:38;0.80;;;0.80;;
11034;SDS011;5571;48.110;-1.706;2022-08-01T04:56:03;0.45;;;0.45;;
11034;SDS011;5571;48.110;-1.706;2022-08-01T04:58:29;1.35;;;0.75;;
11034;SDS011;5571;48.110;-1.706;2022-08-01T05:00:54;3.63;;;1.08;;
11034;SDS011;5571;48.110;-1.706;2022-08-01T05:03:19;2.40;;;0.70;;
11034;SDS011;5571;48.110;-1.706;2022-08-01T05:05:45;2.30;;;0.60;;
11034;SDS011;5571;48.110;-1.706;2022-08-01T05:08:10;0.63;;;0.63;;
11034;SDS011;5571;48.110;-1.706;2022-08-01T05:10:36;0.55;;;0.55;;
11034;SDS011;5571;48.110;-1.706;2022-08-01T05:13:01;0.70;;;0.60;;
11034;SDS011;5571;48.110;-1.706;2022-08-01T05:15:27;1.55;;;0.80;;
11034;SDS011;5571;48.110;-1.706;2022-08-01T05:17:52;1.95;;;1.85;;
11034;SDS011;5571;48.110;-1.706;2022-08-01T05:20:17;3.38;;;1.40;;
11034;SDS011;5571;48.110;-1.706;2022-08-01T05:22:43;0.70;;;0.70;;
11034;SDS011;5571;48.110;-1.706;2022-08-01T05:25:08;0.73;;;0.73;;
11034;SDS011;5571;48.110;-1.706;2022-08-01T05:27:34;2.10;;;0.68;;
11034;SDS011;5571;48.110;-1.706;2022-08-01T05:30:05;0.55;;;0.55;;
11034;SDS011;5571;48.110;-1.706;2022-08-01T05:32:31;0.68;;;0.68;;
11034;SDS011;5571;48.110;-1.706;2022-08-01T05:34:57;0.85;;;0.80;;
11034;SDS011;5571;48.110;-1.706;2022-08-01T05:37:22;0.50;;;0.50;;
11034;SDS011;5571;48.110;-1.706;2022-08-01T05:39:48;1.15;;;1.15;;
11034;SDS011;5571;48.110;-1.706;2022-08-01T05:42:13;2.10;;;2.00;;
11034;SDS011;5571;48.110;-1.706;2022-08-01T05:44:39;1.42;;;1.00;;
11034;SDS011;5571;48.110;-1.706;2022-08-01T05:47:04;0.65;;;0.65;;
11034;SDS011;5571;48.110;-1.706;2022-08-01T05:49:29;0.82;;;0.73;;
11034;SDS011;5571;48.110;-1.706;2022-08-01T05:51:55;2.40;;;0.57;;
11034;SDS011;5571;48.110;-1.706;2022-08-01T05:54:20;0.88;;;0.88;;
11034;SDS011;5571;48.110;-1.706;2022-08-01T05:56:46;0.95;;;0.70;;
11034;SDS011;5571;48.110;-1.706;2022-08-01T05:59:11;1.10;;;0.68;;
11034;SDS011;5571;48.110;-1.706;2022-08-01T06:01:36;0.55;;;0.50;;
11034;SDS011;5571;48.110;-1.706;2022-08-01T06:04:02;0.73;;;0.47;;
11034;SDS011;5571;48.110;-1.706;2022-08-01T06:06:27;0.47;;;0.47;;
11034;SDS011;5571;48.110;-1.706;2022-08-01T06:08:53;0.47;;;0.43;;
11034;SDS011;5571;48.110;-1.706;2022-08-01T06:11:18;0.88;;;0.50;;
11034;SDS011;5571;48.110;-1.706;2022-08-01T06:13:43;0.57;;;0.57;;
11034;SDS011;5571;48.110;-1.706;2022-08-01T06:16:09;0.70;;;0.70;;
11034;SDS011;5571;48.110;-1.706;2022-08-01T06:18:34;1.13;;;0.77;;
11034;SDS011;5571;48.110;-1.706;2022-08-01T06:20:59;1.13;;;0.60;;
11034;SDS011;5571;48.110;-1.706;2022-08-01T06:23:25;1.05;;;0.77;;
11034;SDS011;5571;48.110;-1.706;2022-08-01T06:25:53;1.30;;;0.80;;
11034;SDS011;5571;48.110;-1.706;2022-08-01T06:28:20;0.65;;;0.50;;
11034;SDS011;5571;48.110;-1.706;2022-08-01T06:30:48;1.42;;;0.45;;
11034;SDS011;5571;48.110;-1.706;2022-08-01T06:33:13;0.60;;;0.60;;
11034;SDS011;5571;48.110;-1.706;2022-08-01T06:35:39;0.63;;;0.63;;
11034;SDS011;5571;48.110;-1.706;2022-08-01T06:38:04;0.90;;;0.90;;
11034;SDS011;5571;48.110;-1.706;2022-08-01T06:40:30;1.02;;;0.90;;
11034;SDS011;5571;48.110;-1.706;2022-08-01T06:42:55;0.75;;;0.70;;
11034;SDS011;5571;48.110;-1.706;2022-08-01T06:45:21;1.00;;;0.60;;
11034;SDS011;5571;48.110;-1.706;2022-08-01T06:47:47;0.63;;;0.50;;
11034;SDS011;5571;48.110;-1.706;2022-08-01T06:50:13;1.48;;;0.57;;
11034;SDS011;5571;48.110;-1.706;2022-08-01T06:52:39;1.08;;;0.70;;
11034;SDS011;5571;48.110;-1.706;2022-08-01T06:55:05;0.90;;;0.82;;
11034;SDS011;5571;48.110;-1.706;2022-08-01T06:57:31;0.43;;;0.40;;
11034;SDS011;5571;48.110;-1.706;2022-08-01T06:59:57;2.63;;;0.55;;
11034;SDS011;5571;48.110;-1.706;2022-08-01T07:02:26;0.40;;;0.40;;
11034;SDS011;5571;48.110;-1.706;2022-08-01T07:04:51;3.55;;;0.90;;
11034;SDS011;5571;48.110;-1.706;2022-08-01T07:07:16;3.53;;;0.88;;
11034;SDS011;5571;48.110;-1.706;2022-08-01T07:09:42;2.63;;;1.10;;
11034;SDS011;5571;48.110;-1.706;2022-08-01T07:12:07;0.65;;;0.65;;
11034;SDS011;5571;48.110;-1.706;2022-08-01T07:14:34;1.35;;;1.25;;
11034;SDS011;5571;48.110;-1.706;2022-08-01T07:16:59;0.95;;;0.95;;
11034;SDS011;5571;48.110;-1.706;2022-08-01T07:19:25;0.55;;;0.55;;
11034;SDS011;5571;48.110;-1.706;2022-08-01T07:21:50;0.80;;;0.80;;
11034;SDS011;5571;48.110;-1.706;2022-08-01T07:24:15;1.08;;;1.00;;
11034;SDS011;5571;48.110;-1.706;2022-08-01T07:26:42;0.70;;;0.70;;
11034;SDS011;5571;48.110;-1.706;2022-08-01T07:29:09;1.27;;;0.80;;
11034;SDS011;5571;48.110;-1.706;2022-08-01T07:31:34;0.85;;;0.80;;
11034;SDS011;5571;48.110;-1.706;2022-08-01T07:34:00;2.08;;;1.05;;
11034;SDS011;5571;48.110;-1.706;2022-08-01T07:36:25;1.83;;;0.98;;
11034;SDS011;5571;48.110;-1.706;2022-08-01T07:38:50;2.17;;;1.00;;
11034;SDS011;5571;48.110;-1.706;2022-08-01T07:41:16;0.65;;;0.65;;
11034;SDS011;5571;48.110;-1.706;2022-08-01T07:43:41;1.00;;;0.82;;
11034;SDS011;5571;48.110;-1.706;2022-08-01T07:46:07;0.82;;;0.75;;
11034;SDS011;5571;48.110;-1.706;2022-08-01T07:48:32;0.65;;;0.65;;
11034;SDS011;5571;48.110;-1.706;2022-08-01T07:50:58;0.88;;;0.88;;
11034;SDS011;5571;48.110;-1.706;2022-08-01T07:53:23;1.80;;;1.00;;
11034;SDS011;5571;48.110;-1.706;2022-08-01T07:55:49;1.05;;;0.93;;
11034;SDS011;5571;48.110;-1.706;2022-08-01T07:58:15;2.47;;;1.02;;
11034;SDS011;5571;48.110;-1.706;2022-08-01T08:00:41;2.05;;;0.60;;
11034;SDS011;5571;48.110;-1.706;2022-08-01T08:03:07;2.00;;;1.00;;
11034;SDS011;5571;48.110;-1.706;2022-08-01T08:05:33;0.90;;;0.90;;
11034;SDS011;5571;48.110;-1.706;2022-08-01T08:08:00;1.08;;;0.90;;
11034;SDS011;5571;48.110;-1.706;2022-08-01T08:10:33;0.75;;;0.75;;
11034;SDS011;5571;48.110;-1.706;2022-08-01T08:12:59;1.95;;;1.05;;
11034;SDS011;5571;48.110;-1.706;2022-08-01T08:15:25;2.45;;;1.17;;
11034;SDS011;5571;48.110;-1.706;2022-08-01T08:17:51;0.90;;;0.88;;
11034;SDS011;5571;48.110;-1.706;2022-08-01T08:20:16;1.10;;;1.00;;
11034;SDS011;5571;48.110;-1.706;2022-08-01T08:22:41;4.03;;;1.30;;
11034;SDS011;5571;48.110;-1.706;2022-08-01T08:25:07;0.98;;;0.98;;
11034;SDS011;5571;48.110;-1.706;2022-08-01T08:27:33;1.88;;;1.10;;
11034;SDS011;5571;48.110;-1.706;2022-08-01T08:29:59;1.02;;;1.02;;
11034;SDS011;5571;48.110;-1.706;2022-08-01T08:32:24;1.05;;;0.95;;
11034;SDS011;5571;48.110;-1.706;2022-08-01T08:34:49;1.08;;;0.85;;
11034;SDS011;5571;48.110;-1.706;2022-08-01T08:37:15;1.10;;;0.95;;
11034;SDS011;5571;48.110;-1.706;2022-08-01T08:39:41;1.13;;;0.93;;
11034;SDS011;5571;48.110;-1.706;2022-08-01T08:42:07;0.77;;;0.77;;
11034;SDS011;5571;48.110;-1.706;2022-08-01T08:44:34;1.27;;;0.90;;
11034;SDS011;5571;48.110;-1.706;2022-08-01T08:47:00;0.80;;;0.80;;
11034;SDS011;5571;48.110;-1.706;2022-08-01T08:49:30;2.97;;;1.20;;
11034;SDS011;5571;48.110;-1.706;2022-08-01T08:51:57;1.15;;;0.80;;
11034;SDS011;5571;48.110;-1.706;2022-08-01T08:54:25;1.20;;;0.95;;
11034;SDS011;5571;48.110;-1.706;2022-08-01T08:56:51;1.20;;;1.10;;
11034;SDS011;5571;48.110;-1.706;2022-08-01T08:59:18;0.95;;;0.95;;
11034;SDS011;5571;48.110;-1.706;2022-08-01T09:01:44;0.82;;;0.82;;
11034;SDS011;5571;48.110;-1.706;2022-08-01T09:04:10;0.88;;;0.80;;
11034;SDS011;5571;48.110;-1.706;2022-08-01T09:06:36;1.08;;;1.08;;
11034;SDS011;5571;48.110;-1.706;2022-08-01T09:09:02;0.98;;;0.98;;
11034;SDS011;5571;48.110;-1.706;2022-08-01T09:11:28;1.20;;;1.20;;
11034;SDS011;5571;48.110;-1.706;2022-08-01T09:16:40;1.95;;;1.23;;
11034;SDS011;5571;48.110;-1.706;2022-08-01T09:19:08;1.27;;;0.98;;
11034;SDS011;5571;48.110;-1.706;2022-08-01T09:21:33;2.80;;;1.40;;
11034;SDS011;5571;48.110;-1.706;2022-08-01T09:23:59;3.25;;;1.40;;
11034;SDS011;5571;48.110;-1.706;2022-08-01T09:28:53;1.48;;;1.02;;
11034;SDS011;5571;48.110;-1.706;2022-08-01T09:31:19;0.82;;;0.82;;
11034;SDS011;5571;48.110;-1.706;2022-08-01T09:33:54;3.42;;;1.30;;
11034;SDS011;5571;48.110;-1.706;2022-08-01T09:36:22;1.45;;;1.15;;
11034;SDS011;5571;48.110;-1.706;2022-08-01T09:38:50;1.60;;;1.50;;
11034;SDS011;5571;48.110;-1.706;2022-08-01T09:41:17;1.45;;;1.25;;
11034;SDS011;5571;48.110;-1.706;2022-08-01T09:43:55;2.00;;;1.23;;
11034;SDS011;5571;48.110;-1.706;2022-08-01T09:46:20;2.30;;;1.35;;
11034;SDS011;5571;48.110;-1.706;2022-08-01T09:48:56;1.70;;;1.60;;
11034;SDS011;5571;48.110;-1.706;2022-08-01T09:51:32;1.58;;;1.25;;
11034;SDS011;5571;48.110;-1.706;2022-08-01T09:53:59;1.45;;;1.42;;
11034;SDS011;5571;48.110;-1.706;2022-08-01T09:56:26;1.70;;;1.60;;
11034;SDS011;5571;48.110;-1.706;2022-08-01T09:58:54;1.42;;;1.38;;
11034;SDS011;5571;48.110;-1.706;2022-08-01T10:01:24;1.75;;;1.65;;
11034;SDS011;5571;48.110;-1.706;2022-08-01T10:04:06;1.60;;;1.50;;
11034;SDS011;5571;48.110;-1.706;2022-08-01T10:06:39;1.55;;;1.45;;
11034;SDS011;5571;48.110;-1.706;2022-08-01T10:09:08;2.00;;;1.73;;
11034;SDS011;5571;48.110;-1.706;2022-08-01T10:11:33;2.30;;;1.38;;
11034;SDS011;5571;48.110;-1.706;2022-08-01T10:14:02;6.20;;;1.90;;
11034;SDS011;5571;48.110;-1.706;2022-08-01T10:16:27;1.42;;;1.33;;
11034;SDS011;5571;48.110;-1.706;2022-08-01T10:18:53;2.60;;;1.63;;
11034;SDS011;5571;48.110;-1.706;2022-08-01T10:21:19;1.33;;;1.33;;
11034;SDS011;5571;48.110;-1.706;2022-08-01T10:23:45;1.70;;;1.60;;
11034;SDS011;5571;48.110;-1.706;2022-08-01T10:26:11;1.70;;;1.58;;
11034;SDS011;5571;48.110;-1.706;2022-08-01T10:28:37;3.33;;;1.65;;
11034;SDS011;5571;48.110;-1.706;2022-08-01T10:31:04;1.50;;;1.40;;
11034;SDS011;5571;48.110;-1.706;2022-08-01T10:33:31;2.47;;;1.73;;
11034;SDS011;5571;48.110;-1.706;2022-08-01T10:35:57;3.30;;;1.90;;
11034;SDS011;5571;48.110;-1.706;2022-08-01T10:38:23;1.65;;;1.60;;
11034;SDS011;5571;48.110;-1.706;2022-08-01T10:40:49;2.25;;;1.60;;
11034;SDS011;5571;48.110;-1.706;2022-08-01T10:43:15;2.63;;;1.80;;
11034;SDS011;5571;48.110;-1.706;2022-08-01T10:45:42;1.88;;;1.77;;
11034;SDS011;5571;48.110;-1.706;2022-08-01T10:48:16;2.53;;;2.30;;
11034;SDS011;5571;48.110;-1.706;2022-08-01T10:50:46;2.25;;;1.75;;
11034;SDS011;5571;48.110;-1.706;2022-08-01T10:53:21;1.80;;;1.70;;
11034;SDS011;5571;48.110;-1.706;2022-08-01T10:55:52;2.20;;;2.00;;
11034;SDS011;5571;48.110;-1.706;2022-08-01T10:58:30;2.13;;;1.80;;
11034;SDS011;5571;48.110;-1.706;2022-08-01T11:03:40;3.60;;;1.90;;
11034;SDS011;5571;48.110;-1.706;2022-08-01T11:06:06;4.50;;;1.98;;
11034;SDS011;5571;48.110;-1.706;2022-08-01T11:08:40;2.03;;;1.80;;
11034;SDS011;5571;48.110;-1.706;2022-08-01T11:11:07;2.42;;;1.73;;
11034;SDS011;5571;48.110;-1.706;2022-08-01T11:16:37;2.05;;;1.70;;
11034;SDS011;5571;48.110;-1.706;2022-08-01T11:19:04;2.10;;;1.90;;
11034;SDS011;5571;48.110;-1.706;2022-08-01T11:24:15;1.70;;;1.60;;
11034;SDS011;5571;48.110;-1.706;2022-08-01T11:26:41;1.63;;;1.52;;
11034;SDS011;5571;48.110;-1.706;2022-08-01T11:30:21;3.65;;;1.80;;
11034;SDS011;5571;48.110;-1.706;2022-08-01T11:32:54;1.95;;;1.70;;
11034;SDS011;5571;48.110;-1.706;2022-08-01T11:35:22;2.30;;;1.73;;
11034;SDS011;5571;48.110;-1.706;2022-08-01T11:37:50;4.35;;;2.10;;
11034;SDS011;5571;48.110;-1.706;2022-08-01T11:40:26;2.53;;;1.90;;
11034;SDS011;5571;48.110;-1.706;2022-08-01T11:45:53;1.77;;;1.67;;
11034;SDS011;5571;48.110;-1.706;2022-08-01T11:48:24;2.40;;;1.80;;
11034;SDS011;5571;48.110;-1.706;2022-08-01T11:50:51;3.55;;;1.80;;
11034;SDS011;5571;48.110;-1.706;2022-08-01T11:53:17;1.63;;;1.63;;
11034;SDS011;5571;48.110;-1.706;2022-08-01T11:55:48;1.95;;;1.80;;
11034;SDS011;5571;48.110;-1.706;2022-08-01T11:58:16;2.15;;;1.90;;
11034;SDS011;5571;48.110;-1.706;2022-08-01T12:00:52;2.15;;;1.70;;
11034;SDS011;5571;48.110;-1.706;2022-08-01T12:03:31;1.63;;;1.52;;
11034;SDS011;5571;48.110;-1.706;2022-08-01T12:05:57;1.92;;;1.83;;
11034;SDS011;5571;48.110;-1.706;2022-08-01T12:08:30;1.75;;;1.65;;
11034;SDS011;5571;48.110;-1.706;2022-08-01T12:11:02;4.15;;;2.00;;
11034;SDS011;5571;48.110;-1.706;2022-08-01T12:13:39;2.42;;;1.80;;
11034;SDS011;5571;48.110;-1.706;2022-08-01T12:16:08;2.92;;;1.85;;
11034;SDS011;5571;48.110;-1.706;2022-08-01T12:18:41;1.85;;;1.75;;
11034;SDS011;5571;48.110;-1.706;2022-08-01T12:21:07;3.60;;;1.73;;
11034;SDS011;5571;48.110;-1.706;2022-08-01T12:23:32;3.03;;;1.90;;
11034;SDS011;5571;48.110;-1.706;2022-08-01T12:25:58;2.45;;;1.83;;
11034;SDS011;5571;48.110;-1.706;2022-08-01T12:28:25;2.03;;;1.75;;
11034;SDS011;5571;48.110;-1.706;2022-08-01T12:30:50;2.00;;;1.90;;
11034;SDS011;5571;48.110;-1.706;2022-08-01T12:33:19;2.40;;;1.60;;
11034;SDS011;5571;48.110;-1.706;2022-08-01T12:35:45;3.63;;;1.80;;
11034;SDS011;5571;48.110;-1.706;2022-08-01T12:38:15;1.90;;;1.80;;
11034;SDS011;5571;48.110;-1.706;2022-08-01T12:40:43;1.80;;;1.70;;
11034;SDS011;5571;48.110;-1.706;2022-08-01T12:43:09;3.28;;;1.80;;
11034;SDS011;5571;48.110;-1.706;2022-08-01T12:45:40;5.07;;;1.85;;
11034;SDS011;5571;48.110;-1.706;2022-08-01T12:48:09;6.72;;;2.05;;
11034;SDS011;5571;48.110;-1.706;2022-08-01T12:50:37;2.00;;;1.90;;
11034;SDS011;5571;48.110;-1.706;2022-08-01T12:53:08;1.90;;;1.80;;
11034;SDS011;5571;48.110;-1.706;2022-08-01T12:55:43;1.77;;;1.65;;
11034;SDS011;5571;48.110;-1.706;2022-08-01T12:58:10;1.90;;;1.77;;
11034;SDS011;5571;48.110;-1.706;2022-08-01T13:00:38;1.90;;;1.80;;
11034;SDS011;5571;48.110;-1.706;2022-08-01T13:03:07;2.67;;;2.13;;
11034;SDS011;5571;48.110;-1.706;2022-08-01T13:08:14;1.75;;;1.65;;
11034;SDS011;5571;48.110;-1.706;2022-08-01T13:10:44;3.58;;;1.83;;
11034;SDS011;5571;48.110;-1.706;2022-08-01T13:13:10;3.80;;;1.90;;
11034;SDS011;5571;48.110;-1.706;2022-08-01T13:15:37;1.92;;;1.70;;
11034;SDS011;5571;48.110;-1.706;2022-08-01T13:23:35;1.90;;;1.80;;
11034;SDS011;5571;48.110;-1.706;2022-08-01T13:26:00;4.60;;;1.67;;
11034;SDS011;5571;48.110;-1.706;2022-08-01T13:28:26;2.97;;;1.73;;
11034;SDS011;5571;48.110;-1.706;2022-08-01T13:30:53;2.10;;;1.90;;
11034;SDS011;5571;48.110;-1.706;2022-08-01T13:33:40;1.85;;;1.55;;
11034;SDS011;5571;48.110;-1.706;2022-08-01T13:36:07;2.08;;;1.88;;
11034;SDS011;5571;48.110;-1.706;2022-08-01T13:38:33;1.90;;;1.70;;
11034;SDS011;5571;48.110;-1.706;2022-08-01T13:41:17;4.07;;;1.42;;
11034;SDS011;5571;48.110;-1.706;2022-08-01T13:43:43;1.52;;;1.40;;
11034;SDS011;5571;48.110;-1.706;2022-08-01T13:46:08;2.10;;;1.80;;
11034;SDS011;5571;48.110;-1.706;2022-08-01T13:48:33;1.75;;;1.58;;
11034;SDS011;5571;48.110;-1.706;2022-08-01T13:50:59;2.47;;;1.88;;
11034;SDS011;5571;48.110;-1.706;2022-08-01T13:53:25;2.83;;;1.80;;
11034;SDS011;5571;48.110;-1.706;2022-08-01T13:55:51;2.05;;;1.27;;
11034;SDS011;5571;48.110;-1.706;2022-08-01T13:58:16;1.40;;;1.40;;
11034;SDS011;5571;48.110;-1.706;2022-08-01T14:00:41;3.30;;;1.50;;
11034;SDS011;5571;48.110;-1.706;2022-08-01T14:03:07;1.80;;;1.52;;
11034;SDS011;5571;48.110;-1.706;2022-08-01T14:05:34;1.95;;;1.52;;
11034;SDS011;5571;48.110;-1.706;2022-08-01T14:08:00;1.60;;;1.50;;
11034;SDS011;5571;48.110;-1.706;2022-08-01T14:10:25;2.33;;;1.85;;
11034;SDS011;5571;48.110;-1.706;2022-08-01T14:12:51;4.15;;;1.45;;
11034;SDS011;5571;48.110;-1.706;2022-08-01T14:15:16;3.17;;;1.70;;
11034;SDS011;5571;48.110;-1.706;2022-08-01T14:17:42;2.97;;;1.60;;
11034;SDS011;5571;48.110;-1.706;2022-08-01T14:20:07;2.92;;;1.38;;
11034;SDS011;5571;48.110;-1.706;2022-08-01T14:22:33;4.43;;;1.70;;
11034;SDS011;5571;48.110;-1.706;2022-08-01T14:24:59;1.70;;;1.60;;
11034;SDS011;5571;48.110;-1.706;2022-08-01T14:27:24;4.97;;;1.67;;
11034;SDS011;5571;48.110;-1.706;2022-08-01T14:29:50;3.25;;;1.70;;
11034;SDS011;5571;48.110;-1.706;2022-08-01T14:32:15;2.22;;;1.42;;
11034;SDS011;5571;48.110;-1.706;2022-08-01T14:34:40;5.28;;;1.50;;
11034;SDS011;5571;48.110;-1.706;2022-08-01T14:37:06;1.77;;;1.67;;
11034;SDS011;5571;48.110;-1.706;2022-08-01T14:39:31;4.22;;;1.55;;
11034;SDS011;5571;48.110;-1.706;2022-08-01T14:41:57;3.25;;;1.70;;
11034;SDS011;5571;48.110;-1.706;2022-08-01T14:44:22;2.20;;;1.40;;
11034;SDS011;5571;48.110;-1.706;2022-08-01T14:46:47;5.45;;;1.40;;
11034;SDS011;5571;48.110;-1.706;2022-08-01T14:49:14;1.95;;;1.50;;
11034;SDS011;5571;48.110;-1.706;2022-08-01T14:51:40;1.40;;;1.30;;
11034;SDS011;5571;48.110;-1.706;2022-08-01T14:54:05;1.30;;;1.20;;
11034;SDS011;5571;48.110;-1.706;2022-08-01T14:56:31;4.65;;;1.50;;
11034;SDS011;5571;48.110;-1.706;2022-08-01T14:58:56;3.63;;;1.40;;
11034;SDS011;5571;48.110;-1.706;2022-08-01T15:01:21;3.70;;;1.42;;
11034;SDS011;5571;48.110;-1.706;2022-08-01T15:03:47;1.67;;;1.58;;
11034;SDS011;5571;48.110;-1.706;2022-08-01T15:06:14;3.03;;;1.52;;
11034;SDS011;5571;48.110;-1.706;2022-08-01T15:08:40;1.58;;;1.48;;
11034;SDS011;5571;48.110;-1.706;2022-08-01T15:11:05;2.78;;;1.60;;
11034;SDS011;5571;48.110;-1.706;2022-08-01T15:13:30;3.17;;;1.58;;
11034;SDS011;5571;48.110;-1.706;2022-08-01T15:15:56;1.55;;;1.45;;
11034;SDS011;5571;48.110;-1.706;2022-08-01T15:18:22;2.03;;;1.42;;
11034;SDS011;5571;48.110;-1.706;2022-08-01T15:20:48;1.75;;;1.58;;
11034;SDS011;5571;48.110;-1.706;2022-08-01T15:23:13;3.70;;;1.52;;